createdAt,value
2022-11-23T00:01:33.683Z,98078.75
2022-11-23T00:04:10.691Z,98079.16
2022-11-23T00:06:38.097Z,98082.81
2022-11-23T00:09:05.307Z,98083.22
2022-11-23T00:11:35.506Z,98080.28
2022-11-23T00:14:02.732Z,98077.97
2022-11-23T00:16:30.771Z,98077.53
2022-11-23T00:19:01.414Z,98067.22
2022-11-23T00:21:31.178Z,98071.94
2022-11-23T00:23:58.857Z,98074.63
2022-11-23T00:26:25.881Z,98080.97
2022-11-23T00:28:52.666Z,98076.63
2022-11-23T00:31:21.199Z,98075.81
2022-11-23T00:33:56.237Z,98070.25
2022-11-23T00:36:25.255Z,98062.09
2022-11-23T00:38:54.815Z,98070.03
2022-11-23T00:41:24.745Z,98055.22
2022-11-23T00:43:52.018Z,98058.16
2022-11-23T00:46:25.088Z,98046.66
2022-11-23T00:48:55.056Z,98050.44
2022-11-23T00:51:25.639Z,98049.25
2022-11-23T00:53:53.281Z,98045.19
2022-11-23T00:56:20.972Z,98042.75
2022-11-23T00:58:50.417Z,98028.56
2022-11-23T01:01:20.157Z,98021.81
2022-11-23T01:03:50.986Z,98014.41
2022-11-23T01:06:36.503Z,98009.06
2022-11-23T01:09:11.270Z,97994.66
2022-11-23T01:11:38.033Z,97988.91
2022-11-23T01:14:05.102Z,97993.25
2022-11-23T01:16:36.892Z,97989.72
2022-11-23T01:19:10.967Z,97982.31
2022-11-23T01:21:38.336Z,97984.38
2022-11-23T01:24:13.642Z,97980.88
2022-11-23T01:26:41.931Z,97978.56
2022-11-23T01:29:08.793Z,97973.22
2022-11-23T01:31:35.563Z,97970.31
2022-11-23T01:34:05.331Z,97977.69
2022-11-23T01:36:34.934Z,97966.56
2022-11-23T01:39:03.627Z,97961.16
2022-11-23T01:41:41.822Z,97959.91
2022-11-23T01:44:36.698Z,97955.34
2022-11-23T01:47:07.177Z,97950.81
2022-11-23T01:49:36.050Z,97950.19
2022-11-23T01:52:13.636Z,97953.28
2022-11-23T01:54:48.848Z,97954.75
2022-11-23T01:57:24.051Z,97936.59
2022-11-23T01:59:52.192Z,97937.09
2022-11-23T02:02:19.267Z,97928.44
2022-11-23T02:04:49.551Z,97926.59
2022-11-23T02:07:18.937Z,97929.53
2022-11-23T02:09:47.454Z,97925.22
2022-11-23T02:12:15.353Z,97917.56
2022-11-23T02:14:43.036Z,97911.00
2022-11-23T02:17:09.930Z,97916.78
2022-11-23T02:20:05.799Z,97906.88
2022-11-23T02:22:48.032Z,97896.38
2022-11-23T02:25:43.700Z,97883.38
2022-11-23T02:28:20.031Z,97885.88
2022-11-23T02:30:49.966Z,97883.41
2022-11-23T02:33:16.974Z,97887.75
2022-11-23T02:35:59.298Z,97883.19
2022-11-23T02:38:31.305Z,97868.75
2022-11-23T02:40:58.365Z,97873.09
2022-11-23T02:43:25.785Z,97879.28
2022-11-23T02:46:04.902Z,97876.41
2022-11-23T02:48:31.700Z,97879.31
2022-11-23T02:50:58.459Z,97877.22
2022-11-23T02:53:25.406Z,97870.84
2022-11-23T02:55:52.351Z,97868.53
2022-11-23T02:58:19.129Z,97866.50
2022-11-23T03:00:45.981Z,97857.41
2022-11-23T03:03:12.804Z,97856.16
2022-11-23T03:05:39.542Z,97864.44
2022-11-23T03:08:06.860Z,97851.19
2022-11-23T03:10:34.070Z,97847.47
2022-11-23T03:13:00.869Z,97835.09
2022-11-23T03:15:28.671Z,97827.03
2022-11-23T03:17:57.399Z,97823.13
2022-11-23T03:20:24.146Z,97828.91
2022-11-23T03:22:50.950Z,97832.19
2022-11-23T03:25:17.776Z,97827.63
2022-11-23T03:27:44.594Z,97834.06
2022-11-23T03:30:11.734Z,97835.31
2022-11-23T03:32:38.521Z,97828.69
2022-11-23T03:35:06.289Z,97822.06
2022-11-23T03:37:33.037Z,97817.75
2022-11-23T03:39:59.846Z,97803.72
2022-11-23T03:42:26.624Z,97773.56
2022-11-23T03:44:53.370Z,97766.97
2022-11-23T03:47:20.197Z,97749.38
2022-11-23T03:49:47.234Z,97738.47
2022-11-23T03:52:14.161Z,97729.41
2022-11-23T03:54:40.918Z,97734.75
2022-11-23T03:57:07.710Z,97741.38
2022-11-23T03:59:34.816Z,97741.56
2022-11-23T04:02:01.655Z,97732.91
2022-11-23T04:04:28.426Z,97735.59
2022-11-23T04:06:55.234Z,97724.84
2022-11-23T04:09:22.068Z,97721.13
2022-11-23T04:11:48.863Z,97702.56
2022-11-23T04:14:16.001Z,97700.91
2022-11-23T04:16:42.905Z,97697.22
2022-11-23T04:19:09.775Z,97699.47
2022-11-23T04:21:36.563Z,97676.16
2022-11-23T04:24:03.780Z,97682.75
2022-11-23T04:26:30.796Z,97682.34
2022-11-23T04:28:57.526Z,97688.50
2022-11-23T04:31:24.278Z,97682.75
2022-11-23T04:33:51.053Z,97667.06
2022-11-23T04:36:17.829Z,97664.53
2022-11-23T04:38:44.607Z,97647.22
2022-11-23T04:41:11.409Z,97631.50
2022-11-23T04:43:38.198Z,97627.38
2022-11-23T04:46:05.217Z,97615.78
2022-11-23T04:48:32.287Z,97611.66
2022-11-23T04:50:59.721Z,97606.28
2022-11-23T04:53:26.790Z,97581.53
2022-11-23T04:55:53.628Z,97586.44
2022-11-23T04:58:20.566Z,97578.59
2022-11-23T05:00:47.525Z,97565.16
2022-11-23T05:03:14.425Z,97558.38
2022-11-23T05:05:42.128Z,97552.75
2022-11-23T05:08:10.255Z,97553.81
2022-11-23T05:10:37.988Z,97553.63
2022-11-23T05:13:05.320Z,97537.72
2022-11-23T05:15:32.089Z,97547.38
2022-11-23T05:18:04.701Z,97548.63
2022-11-23T05:20:31.750Z,97541.81
2022-11-23T05:22:58.747Z,97533.56
2022-11-23T05:25:26.384Z,97530.41
2022-11-23T05:27:53.556Z,97522.94
2022-11-23T05:30:20.888Z,97520.44
2022-11-23T05:32:47.626Z,97513.81
2022-11-23T05:35:15.155Z,97511.72
2022-11-23T05:37:42.494Z,97511.56
2022-11-23T05:40:11.051Z,97516.50
2022-11-23T05:42:37.895Z,97514.41
2022-11-23T05:45:11.049Z,97509.66
2022-11-23T05:47:38.851Z,97502.22
2022-11-23T05:50:06.518Z,97497.88
2022-11-23T05:52:33.664Z,97493.72
2022-11-23T05:55:00.398Z,97490.22
2022-11-23T05:57:27.133Z,97498.66
2022-11-23T05:59:53.994Z,97488.53
2022-11-23T06:02:20.740Z,97486.44
2022-11-23T06:04:47.486Z,97484.78
2022-11-23T06:07:14.568Z,97485.41
2022-11-23T06:09:41.335Z,97473.22
2022-11-23T06:12:08.367Z,97462.66
2022-11-23T06:14:35.329Z,97460.78
2022-11-23T06:17:02.088Z,97459.34
2022-11-23T06:19:30.691Z,97450.63
2022-11-23T06:21:58.207Z,97438.84
2022-11-23T06:24:25.469Z,97432.00
2022-11-23T06:26:53.442Z,97421.25
2022-11-23T06:29:20.988Z,97412.97
2022-11-23T06:31:47.986Z,97398.84
2022-11-23T06:34:14.893Z,97391.84
2022-11-23T06:36:41.848Z,97381.31
2022-11-23T06:39:08.943Z,97371.84
2022-11-23T06:41:36.061Z,97367.44
2022-11-23T06:44:03.613Z,97365.13
2022-11-23T06:46:30.393Z,97346.78
2022-11-23T06:48:58.096Z,97355.22
2022-11-23T06:51:24.966Z,97349.97
2022-11-23T06:53:51.737Z,97337.59
2022-11-23T06:56:18.582Z,97343.78
2022-11-23T06:58:45.437Z,97343.78
2022-11-23T07:01:12.366Z,97337.97
2022-11-23T07:03:39.615Z,97326.31
2022-11-23T07:06:11.156Z,97329.81
2022-11-23T07:08:43.809Z,97318.03
2022-11-23T07:11:11.971Z,97317.56
2022-11-23T07:13:40.035Z,97312.19
2022-11-23T07:16:07.687Z,97309.28
2022-11-23T07:18:34.462Z,97299.13
2022-11-23T07:21:01.377Z,97288.78
2022-11-23T07:23:28.223Z,97298.72
2022-11-23T07:25:55.471Z,97295.59
2022-11-23T07:28:22.731Z,97299.09
2022-11-23T07:30:52.450Z,97289.53
2022-11-23T07:33:19.376Z,97284.59
2022-11-23T07:35:46.291Z,97279.81
2022-11-23T07:38:23.382Z,97276.66
2022-11-23T07:40:51.441Z,97274.78
2022-11-23T07:43:18.217Z,97275.88
2022-11-23T07:45:44.995Z,97288.03
2022-11-23T07:48:12.348Z,97282.28
2022-11-23T07:50:40.278Z,97283.00
2022-11-23T07:53:08.211Z,97291.22
2022-11-23T07:55:35.229Z,97322.69
2022-11-23T07:58:03.124Z,97395.56
2022-11-23T08:00:30.601Z,97391.00
2022-11-23T08:03:26.004Z,97377.19
2022-11-23T08:05:46.827Z,97387.28
2022-11-23T08:08:13.670Z,97354.19
2022-11-23T08:10:46.112Z,97350.44
2022-11-23T08:13:15.592Z,97359.31
2022-11-23T08:15:42.387Z,97350.22
2022-11-23T08:18:10.354Z,97353.50
2022-11-23T08:20:37.145Z,97348.13
2022-11-23T08:23:03.870Z,97346.47
2022-11-23T08:25:31.196Z,97360.53
2022-11-23T08:28:05.296Z,97366.72
2022-11-23T08:30:33.848Z,97365.06
2022-11-23T08:33:07.710Z,97374.22
2022-11-23T08:35:39.944Z,97379.97
2022-11-23T08:38:09.197Z,97380.56
2022-11-23T08:40:37.034Z,97379.50
2022-11-23T08:43:05.427Z,97389.00
2022-11-23T08:45:32.351Z,97389.22
2022-11-23T08:48:04.234Z,97397.66
2022-11-23T08:50:34.610Z,97409.25
2022-11-23T08:53:01.519Z,97420.16
2022-11-23T08:55:29.321Z,97426.13
2022-11-23T08:58:00.068Z,97433.13
2022-11-23T09:00:27.966Z,97440.56
2022-11-23T09:02:55.656Z,97446.75
2022-11-23T09:05:22.627Z,97436.78
2022-11-23T09:07:49.441Z,97444.66
2022-11-23T09:10:18.989Z,97445.84
2022-11-23T09:12:47.833Z,97450.78
2022-11-23T09:15:15.091Z,97456.16
2022-11-23T09:17:42.198Z,97453.63
2022-11-23T09:20:10.439Z,97456.91
2022-11-23T09:22:37.522Z,97459.13
2022-11-23T09:25:06.848Z,97466.75
2022-11-23T09:27:33.779Z,97478.72
2022-11-23T09:30:00.537Z,97478.72
2022-11-23T09:32:27.926Z,97479.91
2022-11-23T09:34:54.700Z,97477.34
2022-11-23T09:37:21.450Z,97486.75
2022-11-23T09:39:48.323Z,97482.56
2022-11-23T09:42:33.751Z,97498.38
2022-11-23T09:45:21.436Z,97506.53
2022-11-23T09:48:09.464Z,97515.69
2022-11-23T09:50:48.520Z,97518.53
2022-11-23T09:53:23.438Z,97521.97
2022-11-23T09:55:52.320Z,97532.50
2022-11-23T09:58:22.510Z,97533.47
2022-11-23T10:01:15.170Z,97541.06
2022-11-23T10:03:48.876Z,97542.75
2022-11-23T10:06:29.418Z,97545.88
2022-11-23T10:09:27.447Z,97556.22
2022-11-23T10:12:18.542Z,97560.66
2022-11-23T10:15:04.339Z,97566.84
2022-11-23T10:17:56.713Z,97576.44
2022-11-23T10:20:57.147Z,97582.66
2022-11-23T10:23:55.570Z,97589.94
2022-11-23T10:26:33.108Z,97593.81
2022-11-23T10:29:14.308Z,97598.59
2022-11-23T10:31:47.369Z,97604.59
2022-11-23T10:34:20.008Z,97607.06
2022-11-23T10:36:46.780Z,97609.53
2022-11-23T10:39:26.459Z,97617.84
2022-11-23T10:41:54.940Z,97606.84
2022-11-23T10:44:38.524Z,97613.75
2022-11-23T10:47:05.687Z,97613.84
2022-11-23T10:49:36.305Z,97621.50
2022-11-23T10:52:10.117Z,97618.59
2022-11-23T10:54:50.425Z,97622.09
2022-11-23T10:57:33.935Z,97623.38
2022-11-23T11:00:27.212Z,97619.03
2022-11-23T11:02:58.873Z,97629.81
2022-11-23T11:05:46.265Z,97624.63
2022-11-23T11:08:17.509Z,97627.47
2022-11-23T11:10:50.250Z,97623.97
2022-11-23T11:13:42.829Z,97627.84
2022-11-23T11:16:31.009Z,97638.03
2022-11-23T11:18:58.165Z,97641.56
2022-11-23T11:21:35.823Z,97644.84
2022-11-23T11:24:04.921Z,97652.50
2022-11-23T11:26:35.997Z,97664.31
2022-11-23T11:29:10.638Z,97659.97
2022-11-23T11:31:57.084Z,97668.19
2022-11-23T11:34:35.696Z,97661.53
2022-11-23T11:37:50.443Z,97673.50
2022-11-23T11:40:38.125Z,97669.31
2022-11-23T11:43:31.290Z,97672.22
2022-11-23T11:46:32.295Z,97678.47
2022-11-23T11:49:37.029Z,97690.06
2022-11-23T11:52:11.243Z,97690.22
2022-11-23T11:54:50.149Z,97694.31
2022-11-23T11:57:43.058Z,97694.19
2022-11-23T12:00:20.568Z,97699.97
2022-11-23T12:03:34.298Z,97703.63
2022-11-23T12:06:28.380Z,97688.03
2022-11-23T12:09:17.227Z,97698.38
2022-11-23T12:11:44.354Z,97700.63
2022-11-23T12:14:15.738Z,97707.44
2022-11-23T12:16:45.372Z,97694.88
2022-11-23T12:19:32.307Z,97702.84
2022-11-23T12:22:12.866Z,97699.91
2022-11-23T12:25:14.428Z,97709.91
2022-11-23T12:28:30.048Z,97702.03
2022-11-23T12:31:23.771Z,97712.59
2022-11-23T12:34:44.553Z,97706.13
2022-11-23T12:37:27.046Z,97703.78
2022-11-23T12:40:39.948Z,97720.69
2022-11-23T12:43:16.355Z,97721.28
2022-11-23T12:46:07.423Z,97722.31
2022-11-23T12:49:05.922Z,97725.03
2022-11-23T12:51:51.721Z,97727.03
2022-11-23T12:54:36.370Z,97736.44
2022-11-23T12:57:30.455Z,97724.34
2022-11-23T13:00:07.594Z,97716.63
2022-11-23T13:02:57.107Z,97719.63
2022-11-23T13:05:57.892Z,97719.50
2022-11-23T13:09:02.567Z,97728.97
2022-11-23T13:12:03.805Z,97739.63
2022-11-23T13:15:17.283Z,97742.16
2022-11-23T13:18:33.541Z,97762.47
2022-11-23T13:21:15.880Z,97755.34
2022-11-23T13:23:42.734Z,97757.84
2022-11-23T13:26:17.262Z,97765.22
2022-11-23T13:28:47.056Z,97773.09
2022-11-23T13:31:17.217Z,97781.41
2022-11-23T13:33:50.009Z,97782.00
2022-11-23T13:37:04.381Z,97776.84
2022-11-23T13:39:45.371Z,97780.81
2022-11-23T13:42:12.975Z,97791.16
2022-11-23T13:44:40.467Z,97797.22
2022-11-23T13:47:19.931Z,97794.47
2022-11-23T13:49:51.459Z,97797.31
2022-11-23T13:52:21.568Z,97799.28
2022-11-23T13:55:08.827Z,97811.56
2022-11-23T13:57:39.721Z,97815.53
2022-11-23T14:00:44.297Z,97830.59
2022-11-23T14:03:49.457Z,97822.50
2022-11-23T14:06:35.030Z,97827.91
2022-11-23T14:09:33.132Z,97836.66
2022-11-23T14:12:35.254Z,97836.66
2022-11-23T14:15:16.097Z,97845.34
2022-11-23T14:18:07.916Z,97853.63
2022-11-23T14:20:52.711Z,97851.19
2022-11-23T14:23:55.594Z,97855.31
2022-11-23T14:26:42.536Z,97843.75
2022-11-23T14:29:32.365Z,97866.75
2022-11-23T14:32:18.203Z,97861.44
2022-11-23T14:34:54.894Z,97870.94
2022-11-23T14:38:04.122Z,97858.31
2022-11-23T14:41:08.260Z,97858.66
2022-11-23T14:43:37.116Z,97859.94
2022-11-23T14:46:07.391Z,97867.97
2022-11-23T14:48:36.171Z,97855.53
2022-11-23T14:51:12.146Z,97869.22
2022-11-23T14:53:47.191Z,97860.81
2022-11-23T14:56:34.491Z,97867.25
2022-11-23T14:59:07.130Z,97879.88
2022-11-23T15:01:35.571Z,97876.78
2022-11-23T15:04:18.595Z,97879.09
2022-11-23T15:06:50.796Z,97885.81
2022-11-23T15:10:15.050Z,97887.44
2022-11-23T15:12:45.677Z,97879.84
2022-11-23T15:15:27.111Z,97879.25
2022-11-23T15:18:02.821Z,97879.09
2022-11-23T15:20:46.376Z,97877.34
2022-11-23T15:23:22.562Z,97876.09
2022-11-23T15:25:54.595Z,97875.97
2022-11-23T15:28:28.347Z,97879.34
2022-11-23T15:30:58.564Z,97889.94
2022-11-23T15:33:26.368Z,97887.06
2022-11-23T15:35:54.977Z,97895.41
2022-11-23T15:38:23.787Z,97914.88
2022-11-23T15:40:51.499Z,97921.06
2022-11-23T15:43:19.903Z,97925.66
2022-11-23T15:45:46.716Z,97930.22
2022-11-23T15:48:42.688Z,97927.72
2022-11-23T15:51:38.325Z,97934.59
2022-11-23T15:54:06.422Z,97924.44
2022-11-23T15:56:38.542Z,97922.75
2022-11-23T15:59:50.691Z,97936.06
2022-11-23T16:02:28.751Z,97932.75
2022-11-23T16:05:24.179Z,97939.78
2022-11-23T16:07:59.287Z,97945.56
2022-11-23T16:10:28.315Z,97945.75
2022-11-23T16:13:00.884Z,97948.06
2022-11-23T16:15:27.677Z,97946.16
2022-11-23T16:17:54.632Z,97947.78
2022-11-23T16:20:24.967Z,97957.69
2022-11-23T16:22:53.697Z,97970.53
2022-11-23T16:25:29.953Z,97979.22
2022-11-23T16:28:16.303Z,97987.69
2022-11-23T16:30:46.558Z,97978.19
2022-11-23T16:33:16.329Z,97981.50
2022-11-23T16:35:43.189Z,97981.88
2022-11-23T16:38:10.282Z,97989.72
2022-11-23T16:40:37.415Z,97981.63
2022-11-23T16:43:05.100Z,97984.09
2022-11-23T16:45:33.360Z,97996.53
2022-11-23T16:48:02.714Z,97980.41
2022-11-23T16:50:33.205Z,97993.44
2022-11-23T16:53:14.166Z,97994.28
2022-11-23T16:55:43.768Z,98010.47
2022-11-23T16:58:15.581Z,97995.78
2022-11-23T17:00:45.863Z,97992.47
2022-11-23T17:03:15.483Z,97986.47
2022-11-23T17:05:42.410Z,97983.59
2022-11-23T17:08:09.359Z,97997.06
2022-11-23T17:10:40.908Z,97998.13
2022-11-23T17:13:17.698Z,97995.44
2022-11-23T17:15:44.478Z,97997.53
2022-11-23T17:18:16.059Z,98004.19
2022-11-23T17:20:43.026Z,98002.56
2022-11-23T17:23:10.527Z,97995.09
2022-11-23T17:25:38.621Z,97996.78
2022-11-23T17:28:15.862Z,97992.88
2022-11-23T17:30:43.096Z,97990.41
2022-11-23T17:33:12.225Z,97992.91
2022-11-23T17:35:41.394Z,98001.41
2022-11-23T17:38:16.408Z,98009.91
2022-11-23T17:40:43.477Z,98020.44
2022-11-23T17:43:14.416Z,98024.00
2022-11-23T17:45:42.413Z,98039.72
2022-11-23T17:48:13.701Z,98039.47
2022-11-23T17:50:40.576Z,98042.81
2022-11-23T17:53:07.518Z,98052.94
2022-11-23T17:55:34.332Z,98053.16
2022-11-23T17:58:01.199Z,98055.22
2022-11-23T18:00:29.890Z,98054.16
2022-11-23T18:02:56.636Z,98047.16
2022-11-23T18:05:23.374Z,98049.22
2022-11-23T18:07:53.865Z,98054.81
2022-11-23T18:10:20.927Z,98051.91
2022-11-23T18:12:47.839Z,98054.59
2022-11-23T18:15:15.178Z,98052.94
2022-11-23T18:17:42.138Z,98055.63
2022-11-23T18:20:10.443Z,98054.38
2022-11-23T18:22:37.739Z,98067.63
2022-11-23T18:25:04.992Z,98076.94
2022-11-23T18:27:32.271Z,98071.13
2022-11-23T18:29:59.039Z,98068.22
2022-11-23T18:32:25.827Z,98078.38
2022-11-23T18:34:52.623Z,98083.31
2022-11-23T18:37:19.446Z,98083.09
2022-11-23T18:39:46.454Z,98103.63
2022-11-23T18:42:14.337Z,98099.66
2022-11-23T18:44:41.187Z,98102.97
2022-11-23T18:47:08.395Z,98111.88
2022-11-23T18:49:35.359Z,98118.69
2022-11-23T18:52:02.377Z,98131.53
2022-11-23T18:54:29.288Z,98131.53
2022-11-23T18:56:56.042Z,98148.31
2022-11-23T19:02:11.242Z,98152.47
2022-11-23T19:04:38.913Z,98164.66
2022-11-23T19:07:06.328Z,98166.94
2022-11-23T19:09:34.764Z,98176.91
2022-11-23T19:12:02.177Z,98187.44
2022-11-23T19:14:28.913Z,98205.25
2022-11-23T19:16:55.690Z,98197.38
2022-11-23T19:19:22.467Z,98209.59
2022-11-23T19:21:49.729Z,98205.28
2022-11-23T19:24:16.465Z,98226.38
2022-11-23T19:26:43.302Z,98224.75
2022-11-23T19:29:10.345Z,98236.34
2022-11-23T19:31:37.246Z,98227.84
2022-11-23T19:34:06.233Z,98214.59
2022-11-23T19:36:36.678Z,98217.28
2022-11-23T19:39:05.735Z,98194.91
2022-11-23T19:41:32.928Z,98185.59
2022-11-23T19:44:01.020Z,98194.09
2022-11-23T19:46:30.264Z,98188.09
2022-11-23T19:48:58.295Z,98191.00
2022-11-23T19:51:26.754Z,98185.00
2022-11-23T19:53:57.332Z,98194.50
2022-11-23T19:56:26.349Z,98183.94
2022-11-23T19:59:02.340Z,98175.03
2022-11-23T20:01:32.321Z,98174.81
2022-11-23T20:04:09.443Z,98166.34
2022-11-23T20:06:39.665Z,98162.19
2022-11-23T20:09:13.289Z,98170.88
2022-11-23T20:11:42.417Z,98163.84
2022-11-23T20:14:12.750Z,98169.44
2022-11-23T20:16:40.002Z,98178.69
2022-11-23T20:19:09.728Z,98196.88
2022-11-23T20:21:37.681Z,98195.22
2022-11-23T20:24:12.475Z,98199.53
2022-11-23T20:26:41.087Z,98199.31
2022-11-23T20:29:10.525Z,98207.94
2022-11-23T20:31:38.387Z,98211.25
2022-11-23T20:34:08.209Z,98224.03
2022-11-23T20:36:38.645Z,98217.00
2022-11-23T20:39:10.421Z,98238.88
2022-11-23T20:41:38.358Z,98228.31
2022-11-23T20:44:11.890Z,98240.06
2022-11-23T20:49:26.637Z,98247.88
2022-11-23T20:51:53.514Z,98249.56
2022-11-23T20:54:20.250Z,98256.13
2022-11-23T20:56:47.178Z,98250.94
2022-11-23T20:59:14.148Z,98259.22
2022-11-23T21:01:41.129Z,98278.47
2022-11-23T21:04:09.232Z,98280.09
2022-11-23T21:06:39.343Z,98288.78
2022-11-23T21:09:11.365Z,98290.59
2022-11-23T21:11:57.190Z,98300.16
2022-11-23T21:14:28.085Z,98309.41
2022-11-23T21:16:58.862Z,98314.78
2022-11-23T21:19:39.830Z,98322.69
2022-11-23T21:22:14.726Z,98339.25
2022-11-23T21:24:41.778Z,98342.50
2022-11-23T21:27:12.688Z,98342.97
2022-11-23T21:29:39.580Z,98346.72
2022-11-23T21:32:06.630Z,98353.69
2022-11-23T21:34:33.926Z,98359.34
2022-11-23T21:37:01.354Z,98363.47
2022-11-23T21:39:31.636Z,98372.56
2022-11-23T21:41:58.977Z,98373.69
2022-11-23T21:44:26.541Z,98373.69
2022-11-23T21:46:53.493Z,98371.69
2022-11-23T21:49:20.385Z,98360.31
2022-11-23T21:51:48.707Z,98379.19
2022-11-23T21:54:16.256Z,98385.00
2022-11-23T21:56:44.954Z,98386.91
2022-11-23T21:59:12.540Z,98378.41
2022-11-23T22:01:40.723Z,98372.22
2022-11-23T22:04:11.931Z,98387.53
2022-11-23T22:06:40.416Z,98391.03
2022-11-23T22:09:09.807Z,98395.75
2022-11-23T22:11:39.608Z,98390.59
2022-11-23T22:14:16.168Z,98393.28
2022-11-23T22:16:49.788Z,98383.97
2022-11-23T22:19:18.221Z,98386.09
2022-11-23T22:21:46.329Z,98389.16
2022-11-23T22:24:16.381Z,98391.03
2022-11-23T22:26:44.229Z,98388.72
2022-11-23T22:29:11.895Z,98404.22
2022-11-23T22:31:38.924Z,98416.59
2022-11-23T22:34:09.423Z,98423.47
2022-11-23T22:36:36.446Z,98433.41
2022-11-23T22:39:06.597Z,98433.41
2022-11-23T22:41:36.804Z,98445.00
2022-11-23T22:44:08.626Z,98452.25
2022-11-23T22:46:36.901Z,98463.44
2022-11-23T22:49:04.026Z,98463.06
2022-11-23T22:51:30.820Z,98478.56
2022-11-23T22:53:59.960Z,98487.91
2022-11-23T22:56:28.926Z,98485.59
2022-11-23T22:58:55.794Z,98475.22
2022-11-23T23:01:26.972Z,98485.59
2022-11-23T23:03:56.274Z,98492.63
2022-11-23T23:06:26.477Z,98488.09
2022-11-23T23:08:56.173Z,98497.56
2022-11-23T23:11:24.725Z,98508.78
2022-11-23T23:13:52.581Z,98504.78
2022-11-23T23:16:20.571Z,98506.66
2022-11-23T23:18:47.598Z,98506.66
2022-11-23T23:21:20.623Z,98516.59
2022-11-23T23:23:51.338Z,98523.38
2022-11-23T23:26:21.814Z,98532.66
2022-11-23T23:28:49.501Z,98528.75
2022-11-23T23:31:17.431Z,98545.25
2022-11-23T23:33:45.667Z,98544.25
2022-11-23T23:36:16.034Z,98564.16
2022-11-23T23:38:43.779Z,98568.75
2022-11-23T23:41:12.582Z,98573.03
2022-11-23T23:43:40.275Z,98586.84
2022-11-23T23:46:11.256Z,98597.88
2022-11-23T23:48:40.263Z,98596.00
2022-11-23T23:51:10.418Z,98595.19
2022-11-23T23:53:37.863Z,98603.88
2022-11-23T23:56:08.833Z,98591.03
2022-11-23T23:58:35.665Z,98598.50
